sensor_id;sensor_type;location;lat;lon;timestamp;pressure;altitude;pressure_sealevel;temperature
41940;BMP180;23057;48.554;14.454;2023-07-31T00:01:54;93833.00;;;22.80
41940;BMP180;23057;48.554;14.454;2023-07-31T00:04:24;93843.00;;;22.80
41940;BMP180;23057;48.554;14.454;2023-07-31T00:06:55;93839.00;;;22.80
41940;BMP180;23057;48.554;14.454;2023-07-31T00:09:26;93838.00;;;22.80
41940;BMP180;23057;48.554;14.454;2023-07-31T00:11:57;93840.00;;;22.80
41940;BMP180;23057;48.554;14.454;2023-07-31T00:14:27;93840.00;;;22.80
41940;BMP180;23057;48.554;14.454;2023-07-31T00:16:58;93839.00;;;22.80
41940;BMP180;23057;48.554;14.454;2023-07-31T00:19:29;93842.00;;;22.80
41940;BMP180;23057;48.554;14.454;2023-07-31T00:22:00;93846.00;;;22.80
41940;BMP180;23057;48.554;14.454;2023-07-31T00:24:31;93851.00;;;22.80
41940;BMP180;23057;48.554;14.454;2023-07-31T00:27:02;93850.00;;;22.70
41940;BMP180;23057;48.554;14.454;2023-07-31T00:29:32;93846.00;;;22.70
41940;BMP180;23057;48.554;14.454;2023-07-31T00:32:04;93852.00;;;22.60
41940;BMP180;23057;48.554;14.454;2023-07-31T00:34:35;93853.00;;;22.60
41940;BMP180;23057;48.554;14.454;2023-07-31T00:37:06;93850.00;;;22.50
41940;BMP180;23057;48.554;14.454;2023-07-31T00:39:37;93852.00;;;22.50
41940;BMP180;23057;48.554;14.454;2023-07-31T00:42:08;93857.00;;;22.50
41940;BMP180;23057;48.554;14.454;2023-07-31T00:44:39;93856.00;;;22.50
41940;BMP180;23057;48.554;14.454;2023-07-31T00:47:09;93861.00;;;22.50
41940;BMP180;23057;48.554;14.454;2023-07-31T00:49:40;93855.00;;;22.40
41940;BMP180;23057;48.554;14.454;2023-07-31T00:52:11;93843.00;;;22.40
41940;BMP180;23057;48.554;14.454;2023-07-31T00:54:43;93855.00;;;22.30
41940;BMP180;23057;48.554;14.454;2023-07-31T00:57:14;93853.00;;;22.30
41940;BMP180;23057;48.554;14.454;2023-07-31T00:59:45;93862.00;;;22.20
41940;BMP180;23057;48.554;14.454;2023-07-31T01:02:17;93844.00;;;22.10
41940;BMP180;23057;48.554;14.454;2023-07-31T01:04:48;93854.00;;;22.10
41940;BMP180;23057;48.554;14.454;2023-07-31T01:10:30;93856.00;;;21.90
41940;BMP180;23057;48.554;14.454;2023-07-31T01:13:08;93850.00;;;21.90
41940;BMP180;23057;48.554;14.454;2023-07-31T01:15:38;93850.00;;;21.80
41940;BMP180;23057;48.554;14.454;2023-07-31T01:18:09;93853.00;;;21.80
41940;BMP180;23057;48.554;14.454;2023-07-31T01:20:42;93850.00;;;21.80
41940;BMP180;23057;48.554;14.454;2023-07-31T01:23:56;93853.00;;;21.80
41940;BMP180;23057;48.554;14.454;2023-07-31T01:26:38;93845.00;;;21.70
41940;BMP180;23057;48.554;14.454;2023-07-31T01:29:24;93850.00;;;21.70
41940;BMP180;23057;48.554;14.454;2023-07-31T01:32:02;93844.00;;;21.60
41940;BMP180;23057;48.554;14.454;2023-07-31T01:34:36;93832.00;;;21.50
41940;BMP180;23057;48.554;14.454;2023-07-31T01:37:07;93841.00;;;21.50
41940;BMP180;23057;48.554;14.454;2023-07-31T01:39:38;93839.00;;;21.40
41940;BMP180;23057;48.554;14.454;2023-07-31T01:42:09;93830.00;;;21.40
41940;BMP180;23057;48.554;14.454;2023-07-31T01:44:40;93824.00;;;21.40
41940;BMP180;23057;48.554;14.454;2023-07-31T01:47:11;93826.00;;;21.40
41940;BMP180;23057;48.554;14.454;2023-07-31T01:49:41;93820.00;;;21.40
41940;BMP180;23057;48.554;14.454;2023-07-31T01:52:12;93816.00;;;21.40
41940;BMP180;23057;48.554;14.454;2023-07-31T01:54:43;93815.00;;;21.40
41940;BMP180;23057;48.554;14.454;2023-07-31T01:57:14;93814.00;;;21.40
41940;BMP180;23057;48.554;14.454;2023-07-31T01:59:45;93818.00;;;21.30
41940;BMP180;23057;48.554;14.454;2023-07-31T02:02:16;93811.00;;;21.30
41940;BMP180;23057;48.554;14.454;2023-07-31T02:04:47;93821.00;;;21.20
41940;BMP180;23057;48.554;14.454;2023-07-31T02:07:18;93822.00;;;21.20
41940;BMP180;23057;48.554;14.454;2023-07-31T02:09:48;93823.00;;;21.10
41940;BMP180;23057;48.554;14.454;2023-07-31T02:12:20;93812.00;;;21.10
41940;BMP180;23057;48.554;14.454;2023-07-31T02:14:50;93814.00;;;21.00
41940;BMP180;23057;48.554;14.454;2023-07-31T02:17:21;93818.00;;;21.00
41940;BMP180;23057;48.554;14.454;2023-07-31T02:19:52;93810.00;;;21.00
41940;BMP180;23057;48.554;14.454;2023-07-31T02:22:23;93811.00;;;21.00
41940;BMP180;23057;48.554;14.454;2023-07-31T02:24:54;93811.00;;;20.90
41940;BMP180;23057;48.554;14.454;2023-07-31T02:27:25;93809.00;;;20.90
41940;BMP180;23057;48.554;14.454;2023-07-31T02:29:58;93817.00;;;20.80
41940;BMP180;23057;48.554;14.454;2023-07-31T02:32:29;93814.00;;;20.70
41940;BMP180;23057;48.554;14.454;2023-07-31T02:35:00;93821.00;;;20.70
41940;BMP180;23057;48.554;14.454;2023-07-31T02:37:31;93813.00;;;20.60
41940;BMP180;23057;48.554;14.454;2023-07-31T02:40:02;93816.00;;;20.60
41940;BMP180;23057;48.554;14.454;2023-07-31T02:42:33;93799.00;;;20.50
41940;BMP180;23057;48.554;14.454;2023-07-31T02:45:04;93807.00;;;20.50
41940;BMP180;23057;48.554;14.454;2023-07-31T02:47:36;93804.00;;;20.50
41940;BMP180;23057;48.554;14.454;2023-07-31T02:50:07;93802.00;;;20.50
41940;BMP180;23057;48.554;14.454;2023-07-31T02:52:38;93808.00;;;20.40
41940;BMP180;23057;48.554;14.454;2023-07-31T02:55:09;93804.00;;;20.40
41940;BMP180;23057;48.554;14.454;2023-07-31T02:57:39;93808.00;;;20.30
41940;BMP180;23057;48.554;14.454;2023-07-31T03:00:10;93800.00;;;20.30
41940;BMP180;23057;48.554;14.454;2023-07-31T03:02:41;93801.00;;;20.30
41940;BMP180;23057;48.554;14.454;2023-07-31T03:05:12;93805.00;;;20.30
41940;BMP180;23057;48.554;14.454;2023-07-31T03:07:43;93802.00;;;20.30
41940;BMP180;23057;48.554;14.454;2023-07-31T03:10:14;93804.00;;;20.20
41940;BMP180;23057;48.554;14.454;2023-07-31T03:12:47;93812.00;;;20.20
41940;BMP180;23057;48.554;14.454;2023-07-31T03:15:18;93814.00;;;20.20
41940;BMP180;23057;48.554;14.454;2023-07-31T03:17:49;93807.00;;;20.20
41940;BMP180;23057;48.554;14.454;2023-07-31T03:20:20;93819.00;;;20.20
41940;BMP180;23057;48.554;14.454;2023-07-31T03:22:51;93813.00;;;20.10
41940;BMP180;23057;48.554;14.454;2023-07-31T03:25:21;93812.00;;;20.10
41940;BMP180;23057;48.554;14.454;2023-07-31T03:27:52;93815.00;;;20.10
41940;BMP180;23057;48.554;14.454;2023-07-31T03:30:23;93810.00;;;20.00
41940;BMP180;23057;48.554;14.454;2023-07-31T03:32:54;93821.00;;;19.90
41940;BMP180;23057;48.554;14.454;2023-07-31T03:35:24;93811.00;;;19.80
41940;BMP180;23057;48.554;14.454;2023-07-31T03:37:55;93815.00;;;19.70
41940;BMP180;23057;48.554;14.454;2023-07-31T03:40:26;93814.00;;;19.70
41940;BMP180;23057;48.554;14.454;2023-07-31T03:42:57;93810.00;;;19.60
41940;BMP180;23057;48.554;14.454;2023-07-31T03:45:28;93813.00;;;19.50
41940;BMP180;23057;48.554;14.454;2023-07-31T03:47:59;93818.00;;;19.50
41940;BMP180;23057;48.554;14.454;2023-07-31T03:50:30;93811.00;;;19.40
41940;BMP180;23057;48.554;14.454;2023-07-31T03:53:01;93816.00;;;19.30
41940;BMP180;23057;48.554;14.454;2023-07-31T03:55:32;93810.00;;;19.30
41940;BMP180;23057;48.554;14.454;2023-07-31T03:58:02;93814.00;;;19.30
41940;BMP180;23057;48.554;14.454;2023-07-31T04:00:33;93824.00;;;19.30
41940;BMP180;23057;48.554;14.454;2023-07-31T04:03:04;93817.00;;;19.20
41940;BMP180;23057;48.554;14.454;2023-07-31T04:05:38;93826.00;;;19.20
41940;BMP180;23057;48.554;14.454;2023-07-31T04:08:10;93814.00;;;19.10
41940;BMP180;23057;48.554;14.454;2023-07-31T04:10:41;93824.00;;;19.10
41940;BMP180;23057;48.554;14.454;2023-07-31T04:13:11;93816.00;;;19.10
41940;BMP180;23057;48.554;14.454;2023-07-31T04:15:42;93820.00;;;19.00
41940;BMP180;23057;48.554;14.454;2023-07-31T04:18:18;93812.00;;;19.00
41940;BMP180;23057;48.554;14.454;2023-07-31T04:20:48;93807.00;;;19.00
41940;BMP180;23057;48.554;14.454;2023-07-31T04:23:19;93810.00;;;19.10
41940;BMP180;23057;48.554;14.454;2023-07-31T04:25:50;93812.00;;;19.10
41940;BMP180;23057;48.554;14.454;2023-07-31T04:28:21;93812.00;;;19.20
41940;BMP180;23057;48.554;14.454;2023-07-31T04:30:52;93809.00;;;19.20
41940;BMP180;23057;48.554;14.454;2023-07-31T04:33:24;93808.00;;;19.40
41940;BMP180;23057;48.554;14.454;2023-07-31T04:35:54;93809.00;;;19.70
41940;BMP180;23057;48.554;14.454;2023-07-31T04:38:25;93801.00;;;19.90
41940;BMP180;23057;48.554;14.454;2023-07-31T04:40:59;93806.00;;;19.90
41940;BMP180;23057;48.554;14.454;2023-07-31T04:43:29;93818.00;;;20.10
41940;BMP180;23057;48.554;14.454;2023-07-31T04:46:00;93810.00;;;20.10
41940;BMP180;23057;48.554;14.454;2023-07-31T04:48:31;93822.00;;;20.20
41940;BMP180;23057;48.554;14.454;2023-07-31T04:51:02;93821.00;;;20.30
41940;BMP180;23057;48.554;14.454;2023-07-31T04:53:33;93815.00;;;20.30
41940;BMP180;23057;48.554;14.454;2023-07-31T04:56:03;93816.00;;;20.30
41940;BMP180;23057;48.554;14.454;2023-07-31T04:58:34;93822.00;;;20.40
41940;BMP180;23057;48.554;14.454;2023-07-31T05:01:05;93819.00;;;20.50
41940;BMP180;23057;48.554;14.454;2023-07-31T05:03:36;93816.00;;;20.50
41940;BMP180;23057;48.554;14.454;2023-07-31T05:06:06;93817.00;;;20.60
41940;BMP180;23057;48.554;14.454;2023-07-31T05:08:37;93833.00;;;20.60
41940;BMP180;23057;48.554;14.454;2023-07-31T05:11:08;93823.00;;;20.70
41940;BMP180;23057;48.554;14.454;2023-07-31T05:13:39;93820.00;;;20.70
41940;BMP180;23057;48.554;14.454;2023-07-31T05:16:10;93827.00;;;21.00
41940;BMP180;23057;48.554;14.454;2023-07-31T05:18:40;93826.00;;;21.40
41940;BMP180;23057;48.554;14.454;2023-07-31T05:21:11;93830.00;;;21.60
41940;BMP180;23057;48.554;14.454;2023-07-31T05:23:42;93823.00;;;21.80
41940;BMP180;23057;48.554;14.454;2023-07-31T05:26:13;93829.00;;;22.00
41940;BMP180;23057;48.554;14.454;2023-07-31T05:28:44;93822.00;;;22.30
41940;BMP180;23057;48.554;14.454;2023-07-31T05:31:15;93825.00;;;22.40
41940;BMP180;23057;48.554;14.454;2023-07-31T05:33:45;93832.00;;;22.70
41940;BMP180;23057;48.554;14.454;2023-07-31T05:36:17;93832.00;;;23.00
41940;BMP180;23057;48.554;14.454;2023-07-31T05:38:48;93831.00;;;23.30
41940;BMP180;23057;48.554;14.454;2023-07-31T05:41:19;93828.00;;;23.50
41940;BMP180;23057;48.554;14.454;2023-07-31T05:43:50;93828.00;;;23.80
41940;BMP180;23057;48.554;14.454;2023-07-31T05:46:22;93823.00;;;24.20
41940;BMP180;23057;48.554;14.454;2023-07-31T05:48:52;93837.00;;;24.60
41940;BMP180;23057;48.554;14.454;2023-07-31T05:51:23;93836.00;;;24.90
41940;BMP180;23057;48.554;14.454;2023-07-31T05:53:54;93830.00;;;25.20
41940;BMP180;23057;48.554;14.454;2023-07-31T05:56:25;93832.00;;;25.40
41940;BMP180;23057;48.554;14.454;2023-07-31T05:58:57;93837.00;;;25.70
41940;BMP180;23057;48.554;14.454;2023-07-31T06:01:28;93833.00;;;25.80
41940;BMP180;23057;48.554;14.454;2023-07-31T06:03:59;93831.00;;;25.70
41940;BMP180;23057;48.554;14.454;2023-07-31T06:06:30;93843.00;;;25.70
41940;BMP180;23057;48.554;14.454;2023-07-31T06:09:01;93842.00;;;25.50
41940;BMP180;23057;48.554;14.454;2023-07-31T06:11:31;93836.00;;;25.40
41940;BMP180;23057;48.554;14.454;2023-07-31T06:14:02;93833.00;;;25.40
41940;BMP180;23057;48.554;14.454;2023-07-31T06:16:33;93840.00;;;25.50
41940;BMP180;23057;48.554;14.454;2023-07-31T06:19:04;93841.00;;;25.70
41940;BMP180;23057;48.554;14.454;2023-07-31T06:21:35;93826.00;;;25.80
41940;BMP180;23057;48.554;14.454;2023-07-31T06:24:08;93826.00;;;26.00
41940;BMP180;23057;48.554;14.454;2023-07-31T06:26:39;93819.00;;;26.20
41940;BMP180;23057;48.554;14.454;2023-07-31T06:29:10;93821.00;;;26.40
41940;BMP180;23057;48.554;14.454;2023-07-31T06:31:41;93826.00;;;26.40
41940;BMP180;23057;48.554;14.454;2023-07-31T06:34:12;93830.00;;;26.60
41940;BMP180;23057;48.554;14.454;2023-07-31T06:36:42;93822.00;;;26.90
41940;BMP180;23057;48.554;14.454;2023-07-31T06:39:13;93821.00;;;27.00
41940;BMP180;23057;48.554;14.454;2023-07-31T06:41:44;93827.00;;;27.10
41940;BMP180;23057;48.554;14.454;2023-07-31T06:44:15;93820.00;;;27.20
41940;BMP180;23057;48.554;14.454;2023-07-31T06:46:46;93821.00;;;27.20
41940;BMP180;23057;48.554;14.454;2023-07-31T06:49:17;93821.00;;;27.20
41940;BMP180;23057;48.554;14.454;2023-07-31T06:51:47;93826.00;;;27.20
41940;BMP180;23057;48.554;14.454;2023-07-31T06:54:18;93818.00;;;27.20
41940;BMP180;23057;48.554;14.454;2023-07-31T06:56:49;93819.00;;;27.20
41940;BMP180;23057;48.554;14.454;2023-07-31T06:59:20;93823.00;;;27.10
41940;BMP180;23057;48.554;14.454;2023-07-31T07:01:51;93820.00;;;27.00
41940;BMP180;23057;48.554;14.454;2023-07-31T07:04:21;93818.00;;;27.00
41940;BMP180;23057;48.554;14.454;2023-07-31T07:06:52;93820.00;;;27.00
41940;BMP180;23057;48.554;14.454;2023-07-31T07:09:23;93812.00;;;26.90
41940;BMP180;23057;48.554;14.454;2023-07-31T07:11:54;93816.00;;;27.00
41940;BMP180;23057;48.554;14.454;2023-07-31T07:14:24;93818.00;;;27.00
41940;BMP180;23057;48.554;14.454;2023-07-31T07:16:55;93807.00;;;27.10
41940;BMP180;23057;48.554;14.454;2023-07-31T07:19:26;93810.00;;;27.10
41940;BMP180;23057;48.554;14.454;2023-07-31T07:21:57;93804.00;;;27.30
41940;BMP180;23057;48.554;14.454;2023-07-31T07:24:28;93801.00;;;27.30
41940;BMP180;23057;48.554;14.454;2023-07-31T07:26:59;93813.00;;;27.50
41940;BMP180;23057;48.554;14.454;2023-07-31T07:29:30;93806.00;;;27.60
41940;BMP180;23057;48.554;14.454;2023-07-31T07:32:01;93809.00;;;27.70
41940;BMP180;23057;48.554;14.454;2023-07-31T07:34:32;93810.00;;;27.80
41940;BMP180;23057;48.554;14.454;2023-07-31T07:37:03;93805.00;;;27.80
41940;BMP180;23057;48.554;14.454;2023-07-31T07:39:34;93812.00;;;27.80
41940;BMP180;23057;48.554;14.454;2023-07-31T07:42:05;93808.00;;;27.70
41940;BMP180;23057;48.554;14.454;2023-07-31T07:44:36;93807.00;;;27.70
41940;BMP180;23057;48.554;14.454;2023-07-31T07:47:07;93808.00;;;27.80
41940;BMP180;23057;48.554;14.454;2023-07-31T07:49:37;93809.00;;;28.00
41940;BMP180;23057;48.554;14.454;2023-07-31T07:52:08;93807.00;;;28.30
41940;BMP180;23057;48.554;14.454;2023-07-31T07:54:39;93802.00;;;28.40
41940;BMP180;23057;48.554;14.454;2023-07-31T07:57:10;93806.00;;;28.50
41940;BMP180;23057;48.554;14.454;2023-07-31T07:59:41;93809.00;;;28.50
41940;BMP180;23057;48.554;14.454;2023-07-31T08:02:12;93814.00;;;28.60
41940;BMP180;23057;48.554;14.454;2023-07-31T08:04:43;93813.00;;;28.50
41940;BMP180;23057;48.554;14.454;2023-07-31T08:07:14;93806.00;;;28.50
41940;BMP180;23057;48.554;14.454;2023-07-31T08:09:45;93796.00;;;28.50
41940;BMP180;23057;48.554;14.454;2023-07-31T08:12:16;93805.00;;;28.40
41940;BMP180;23057;48.554;14.454;2023-07-31T08:14:46;93806.00;;;28.40
41940;BMP180;23057;48.554;14.454;2023-07-31T08:17:17;93813.00;;;28.30
41940;BMP180;23057;48.554;14.454;2023-07-31T08:19:48;93813.00;;;28.30
41940;BMP180;23057;48.554;14.454;2023-07-31T08:22:19;93815.00;;;28.30
41940;BMP180;23057;48.554;14.454;2023-07-31T08:24:49;93813.00;;;28.40
41940;BMP180;23057;48.554;14.454;2023-07-31T08:27:20;93807.00;;;28.40
41940;BMP180;23057;48.554;14.454;2023-07-31T08:29:52;93813.00;;;28.30
41940;BMP180;23057;48.554;14.454;2023-07-31T08:32:23;93814.00;;;28.30
41940;BMP180;23057;48.554;14.454;2023-07-31T08:34:54;93810.00;;;28.40
41940;BMP180;23057;48.554;14.454;2023-07-31T08:37:25;93807.00;;;28.50
41940;BMP180;23057;48.554;14.454;2023-07-31T08:39:56;93800.00;;;28.60
41940;BMP180;23057;48.554;14.454;2023-07-31T08:42:26;93800.00;;;28.70
41940;BMP180;23057;48.554;14.454;2023-07-31T08:44:59;93795.00;;;28.80
41940;BMP180;23057;48.554;14.454;2023-07-31T08:47:31;93787.00;;;29.00
41940;BMP180;23057;48.554;14.454;2023-07-31T08:50:02;93791.00;;;29.10
41940;BMP180;23057;48.554;14.454;2023-07-31T08:52:34;93788.00;;;29.10
41940;BMP180;23057;48.554;14.454;2023-07-31T08:55:06;93788.00;;;29.00
41940;BMP180;23057;48.554;14.454;2023-07-31T08:57:39;93783.00;;;28.90
41940;BMP180;23057;48.554;14.454;2023-07-31T09:00:13;93787.00;;;28.70
41940;BMP180;23057;48.554;14.454;2023-07-31T09:05:32;93774.00;;;28.40
41940;BMP180;23057;48.554;14.454;2023-07-31T09:08:04;93784.00;;;28.20
41940;BMP180;23057;48.554;14.454;2023-07-31T09:10:43;93782.00;;;28.10
41940;BMP180;23057;48.554;14.454;2023-07-31T09:13:17;93784.00;;;28.00
41940;BMP180;23057;48.554;14.454;2023-07-31T09:15:48;93791.00;;;27.80
41940;BMP180;23057;48.554;14.454;2023-07-31T09:18:19;93793.00;;;27.70
41940;BMP180;23057;48.554;14.454;2023-07-31T09:21:05;93795.00;;;27.70
41940;BMP180;23057;48.554;14.454;2023-07-31T09:23:47;93786.00;;;27.70
41940;BMP180;23057;48.554;14.454;2023-07-31T09:26:36;93784.00;;;27.70
41940;BMP180;23057;48.554;14.454;2023-07-31T09:29:19;93782.00;;;27.70
41940;BMP180;23057;48.554;14.454;2023-07-31T09:31:50;93784.00;;;27.90
41940;BMP180;23057;48.554;14.454;2023-07-31T09:34:38;93784.00;;;28.00
41940;BMP180;23057;48.554;14.454;2023-07-31T09:37:11;93783.00;;;28.00
41940;BMP180;23057;48.554;14.454;2023-07-31T09:39:47;93785.00;;;28.00
41940;BMP180;23057;48.554;14.454;2023-07-31T09:42:26;93782.00;;;28.00
41940;BMP180;23057;48.554;14.454;2023-07-31T09:45:08;93784.00;;;28.00
41940;BMP180;23057;48.554;14.454;2023-07-31T09:47:46;93791.00;;;28.10
41940;BMP180;23057;48.554;14.454;2023-07-31T09:50:22;93785.00;;;28.30
41940;BMP180;23057;48.554;14.454;2023-07-31T09:52:54;93782.00;;;28.40
41940;BMP180;23057;48.554;14.454;2023-07-31T09:55:24;93772.00;;;28.40
41940;BMP180;23057;48.554;14.454;2023-07-31T09:57:57;93775.00;;;28.50
41940;BMP180;23057;48.554;14.454;2023-07-31T10:00:30;93774.00;;;28.60
41940;BMP180;23057;48.554;14.454;2023-07-31T10:03:07;93768.00;;;28.70
41940;BMP180;23057;48.554;14.454;2023-07-31T10:05:49;93768.00;;;28.80
41940;BMP180;23057;48.554;14.454;2023-07-31T10:08:27;93774.00;;;28.90
41940;BMP180;23057;48.554;14.454;2023-07-31T10:11:01;93767.00;;;29.00
41940;BMP180;23057;48.554;14.454;2023-07-31T10:13:34;93765.00;;;29.20
41940;BMP180;23057;48.554;14.454;2023-07-31T10:16:06;93761.00;;;29.30
41940;BMP180;23057;48.554;14.454;2023-07-31T10:18:39;93757.00;;;29.30
41940;BMP180;23057;48.554;14.454;2023-07-31T10:21:11;93758.00;;;29.40
41940;BMP180;23057;48.554;14.454;2023-07-31T10:23:44;93753.00;;;29.40
41940;BMP180;23057;48.554;14.454;2023-07-31T10:26:19;93748.00;;;29.50
41940;BMP180;23057;48.554;14.454;2023-07-31T10:28:52;93745.00;;;29.60
41940;BMP180;23057;48.554;14.454;2023-07-31T10:31:25;93735.00;;;29.80
41940;BMP180;23057;48.554;14.454;2023-07-31T10:33:58;93719.00;;;29.90
41940;BMP180;23057;48.554;14.454;2023-07-31T10:36:31;93718.00;;;30.10
41940;BMP180;23057;48.554;14.454;2023-07-31T10:39:04;93723.00;;;30.20
41940;BMP180;23057;48.554;14.454;2023-07-31T10:41:58;93713.00;;;30.30
41940;BMP180;23057;48.554;14.454;2023-07-31T10:44:29;93712.00;;;30.30
41940;BMP180;23057;48.554;14.454;2023-07-31T10:47:00;93709.00;;;30.30
41940;BMP180;23057;48.554;14.454;2023-07-31T10:49:32;93708.00;;;30.30
41940;BMP180;23057;48.554;14.454;2023-07-31T10:52:03;93708.00;;;30.20
41940;BMP180;23057;48.554;14.454;2023-07-31T10:54:35;93711.00;;;30.10
41940;BMP180;23057;48.554;14.454;2023-07-31T10:57:22;93704.00;;;30.10
41940;BMP180;23057;48.554;14.454;2023-07-31T11:00:31;93690.00;;;30.10
41940;BMP180;23057;48.554;14.454;2023-07-31T11:03:08;93688.00;;;30.10
41940;BMP180;23057;48.554;14.454;2023-07-31T11:08:32;93677.00;;;30.00
41940;BMP180;23057;48.554;14.454;2023-07-31T11:13:41;93691.00;;;30.10
41940;BMP180;23057;48.554;14.454;2023-07-31T11:16:13;93694.00;;;29.90
41940;BMP180;23057;48.554;14.454;2023-07-31T11:18:47;93688.00;;;29.80
41940;BMP180;23057;48.554;14.454;2023-07-31T11:21:22;93688.00;;;29.70
41940;BMP180;23057;48.554;14.454;2023-07-31T11:23:57;93690.00;;;29.60
41940;BMP180;23057;48.554;14.454;2023-07-31T11:26:28;93685.00;;;29.60
41940;BMP180;23057;48.554;14.454;2023-07-31T11:29:01;93680.00;;;29.60
41940;BMP180;23057;48.554;14.454;2023-07-31T11:31:32;93682.00;;;29.70
41940;BMP180;23057;48.554;14.454;2023-07-31T11:34:09;93677.00;;;29.70
41940;BMP180;23057;48.554;14.454;2023-07-31T11:36:40;93676.00;;;29.60
41940;BMP180;23057;48.554;14.454;2023-07-31T11:39:11;93670.00;;;29.60
41940;BMP180;23057;48.554;14.454;2023-07-31T11:41:42;93674.00;;;29.60
41940;BMP180;23057;48.554;14.454;2023-07-31T11:44:13;93678.00;;;29.60
41940;BMP180;23057;48.554;14.454;2023-07-31T11:46:44;93681.00;;;29.50
41940;BMP180;23057;48.554;14.454;2023-07-31T11:49:15;93675.00;;;29.40
41940;BMP180;23057;48.554;14.454;2023-07-31T11:51:46;93667.00;;;29.40
41940;BMP180;23057;48.554;14.454;2023-07-31T11:54:18;93673.00;;;29.30
41940;BMP180;23057;48.554;14.454;2023-07-31T11:56:49;93665.00;;;29.30
41940;BMP180;23057;48.554;14.454;2023-07-31T11:59:21;93665.00;;;29.20
41940;BMP180;23057;48.554;14.454;2023-07-31T12:01:52;93668.00;;;29.20
41940;BMP180;23057;48.554;14.454;2023-07-31T12:04:24;93663.00;;;29.10
41940;BMP180;23057;48.554;14.454;2023-07-31T12:06:56;93659.00;;;29.10
41940;BMP180;23057;48.554;14.454;2023-07-31T12:09:27;93663.00;;;29.00
41940;BMP180;23057;48.554;14.454;2023-07-31T12:11:58;93659.00;;;28.90
41940;BMP180;23057;48.554;14.454;2023-07-31T12:14:30;93648.00;;;28.90
41940;BMP180;23057;48.554;14.454;2023-07-31T12:17:04;93640.00;;;28.90
41940;BMP180;23057;48.554;14.454;2023-07-31T12:19:37;93646.00;;;28.90
41940;BMP180;23057;48.554;14.454;2023-07-31T12:22:15;93644.00;;;29.00
41940;BMP180;23057;48.554;14.454;2023-07-31T12:24:47;93643.00;;;29.00
41940;BMP180;23057;48.554;14.454;2023-07-31T12:27:17;93639.00;;;29.00
41940;BMP180;23057;48.554;14.454;2023-07-31T12:29:49;93633.00;;;28.90
41940;BMP180;23057;48.554;14.454;2023-07-31T12:32:21;93633.00;;;28.90
41940;BMP180;23057;48.554;14.454;2023-07-31T12:34:54;93626.00;;;28.90
41940;BMP180;23057;48.554;14.454;2023-07-31T12:37:25;93627.00;;;29.00
41940;BMP180;23057;48.554;14.454;2023-07-31T12:39:56;93632.00;;;29.10
41940;BMP180;23057;48.554;14.454;2023-07-31T12:42:31;93621.00;;;29.10
41940;BMP180;23057;48.554;14.454;2023-07-31T12:45:02;93620.00;;;29.30
41940;BMP180;23057;48.554;14.454;2023-07-31T12:47:34;93608.00;;;29.50
41940;BMP180;23057;48.554;14.454;2023-07-31T12:50:06;93592.00;;;29.70
41940;BMP180;23057;48.554;14.454;2023-07-31T12:52:38;93592.00;;;29.90
41940;BMP180;23057;48.554;14.454;2023-07-31T12:55:09;93598.00;;;30.10
41940;BMP180;23057;48.554;14.454;2023-07-31T12:57:41;93594.00;;;30.20
41940;BMP180;23057;48.554;14.454;2023-07-31T13:00:15;93594.00;;;30.30
41940;BMP180;23057;48.554;14.454;2023-07-31T13:02:46;93594.00;;;30.50
41940;BMP180;23057;48.554;14.454;2023-07-31T13:05:17;93581.00;;;30.60
41940;BMP180;23057;48.554;14.454;2023-07-31T13:07:50;93584.00;;;30.60
41940;BMP180;23057;48.554;14.454;2023-07-31T13:10:22;93584.00;;;30.70
41940;BMP180;23057;48.554;14.454;2023-07-31T13:12:54;93574.00;;;30.60
41940;BMP180;23057;48.554;14.454;2023-07-31T13:15:25;93577.00;;;30.50
41940;BMP180;23057;48.554;14.454;2023-07-31T13:17:56;93572.00;;;30.40
41940;BMP180;23057;48.554;14.454;2023-07-31T13:20:27;93569.00;;;30.40
41940;BMP180;23057;48.554;14.454;2023-07-31T13:22:58;93561.00;;;30.50
41940;BMP180;23057;48.554;14.454;2023-07-31T13:25:29;93568.00;;;30.60
41940;BMP180;23057;48.554;14.454;2023-07-31T13:27:59;93563.00;;;30.70
41940;BMP180;23057;48.554;14.454;2023-07-31T13:30:30;93559.00;;;30.70
41940;BMP180;23057;48.554;14.454;2023-07-31T13:33:01;93555.00;;;30.80
41940;BMP180;23057;48.554;14.454;2023-07-31T13:35:32;93554.00;;;30.80
41940;BMP180;23057;48.554;14.454;2023-07-31T13:38:03;93556.00;;;30.80
41940;BMP180;23057;48.554;14.454;2023-07-31T13:40:34;93550.00;;;30.80
41940;BMP180;23057;48.554;14.454;2023-07-31T13:43:05;93547.00;;;30.90
41940;BMP180;23057;48.554;14.454;2023-07-31T13:45:36;93550.00;;;31.00
41940;BMP180;23057;48.554;14.454;2023-07-31T13:48:07;93545.00;;;31.00
41940;BMP180;23057;48.554;14.454;2023-07-31T13:50:37;93541.00;;;31.00
41940;BMP180;23057;48.554;14.454;2023-07-31T13:53:08;93534.00;;;30.90
41940;BMP180;23057;48.554;14.454;2023-07-31T13:55:39;93535.00;;;30.90
41940;BMP180;23057;48.554;14.454;2023-07-31T13:58:10;93538.00;;;30.80
41940;BMP180;23057;48.554;14.454;2023-07-31T14:00:40;93535.00;;;30.80
41940;BMP180;23057;48.554;14.454;2023-07-31T14:03:11;93534.00;;;30.80
41940;BMP180;23057;48.554;14.454;2023-07-31T14:05:42;93529.00;;;30.70
41940;BMP180;23057;48.554;14.454;2023-07-31T14:08:13;93529.00;;;30.70
41940;BMP180;23057;48.554;14.454;2023-07-31T14:10:44;93524.00;;;30.70
41940;BMP180;23057;48.554;14.454;2023-07-31T14:13:15;93524.00;;;30.70
41940;BMP180;23057;48.554;14.454;2023-07-31T14:15:45;93517.00;;;30.60
41940;BMP180;23057;48.554;14.454;2023-07-31T14:18:17;93519.00;;;30.70
41940;BMP180;23057;48.554;14.454;2023-07-31T14:20:48;93524.00;;;30.70
41940;BMP180;23057;48.554;14.454;2023-07-31T14:23:19;93522.00;;;30.80
41940;BMP180;23057;48.554;14.454;2023-07-31T14:25:50;93512.00;;;30.90
41940;BMP180;23057;48.554;14.454;2023-07-31T14:28:21;93517.00;;;31.10
41940;BMP180;23057;48.554;14.454;2023-07-31T14:30:52;93518.00;;;31.10
41940;BMP180;23057;48.554;14.454;2023-07-31T14:33:23;93508.00;;;30.80
41940;BMP180;23057;48.554;14.454;2023-07-31T14:35:54;93500.00;;;30.60